This is the latest recevied weather packets stored in our database for station/object KG4YZY-1. If no packets are shown the sender has not sent any weather packets the latest 10 day(s).
| Time | Temp. | Humidity | Pressure | Rain* | Wind** | Luminosity | Snow |
|---|---|---|---|---|---|---|---|
| 1777146904 | 27.22° C | 59% | 1013 hPa | 0 mm | - | - | - |
| 1777146604 | 27.22° C | 58% | 1013.1 hPa | 0 mm | - | - | - |
| 1777146303 | 27.22° C | 58% | 1013 hPa | 0 mm | - | - | - |
| 1777146004 | 27.22° C | 58% | 1013.1 hPa | 0 mm | - | - | - |
| 1777145704 | 27.78° C | 56% | 1013.2 hPa | 0 mm | - | - | - |
| 1777145404 | 27.22° C | 56% | 1013.3 hPa | 0 mm | - | - | - |
| 1777145104 | 27.22° C | 54% | 1013.4 hPa | 0 mm | - | - | - |
| 1777144804 | 27.22° C | 55% | 1013.4 hPa | 0 mm | - | - | - |
| 1777144504 | 27.22° C | 53% | 1013.6 hPa | 0 mm | - | - | - |
| 1777144203 | 27.22° C | 52% | 1013.7 hPa | 0 mm | - | - | - |
| 1777143904 | 27.78° C | 53% | 1013.7 hPa | 0 mm | - | - | - |
| 1777143604 | 27.78° C | 55% | 1013.8 hPa | 0 mm | - | - | - |
| 1777143304 | 27.78° C | 54% | 1013.8 hPa | 0 mm | - | - | - |
| 1777143004 | 27.78° C | 54% | 1013.8 hPa | 0 mm | - | - | - |
| 1777142703 | 27.78° C | 55% | 1013.7 hPa | 0 mm | - | - | - |
| 1777142404 | 27.78° C | 55% | 1013.8 hPa | 0 mm | - | - | - |
| 1777142104 | 28.33° C | 54% | 1013.8 hPa | 0 mm | - | - | - |
| 1777141803 | 28.33° C | 56% | 1013.8 hPa | 0 mm | - | - | - |
| 1777141504 | 28.33° C | 57% | 1013.8 hPa | 0 mm | - | - | - |
| 1777141203 | 28.33° C | 55% | 1013.9 hPa | 0 mm | - | - | - |
| 1777140904 | 27.78° C | 57% | 1013.9 hPa | 0 mm | - | - | - |
| 1777140604 | 27.78° C | 59% | 1014 hPa | 0 mm | - | - | - |
| 1777140304 | 27.22° C | 63% | 1013.9 hPa | 0 mm | - | - | - |
| 1777140005 | 26.67° C | 63% | 1013.9 hPa | 0 mm | - | - | - |
| 1777139704 | 27.22° C | 64% | 1014 hPa | 0 mm | - | - | - |
* Rain latest hour (hover to see other rain measurements)
** Current wind speed in m/s (hover to see current wind gust speed)